sensor_id;sensor_type;location;lat;lon;timestamp;P1;durP1;ratioP1;P2;durP2;ratioP2
57947;SDS011;43754;56.992;24.292;2023-04-25T00:01:46;8.20;;;4.85;;
57947;SDS011;43754;56.992;24.292;2023-04-25T00:04:17;7.88;;;4.43;;
57947;SDS011;43754;56.992;24.292;2023-04-25T00:06:50;10.13;;;5.43;;
57947;SDS011;43754;56.992;24.292;2023-04-25T00:09:25;9.65;;;4.40;;
57947;SDS011;43754;56.992;24.292;2023-04-25T00:11:58;8.38;;;5.00;;
57947;SDS011;43754;56.992;24.292;2023-04-25T00:14:30;8.00;;;4.03;;
57947;SDS011;43754;56.992;24.292;2023-04-25T00:17:05;8.73;;;4.03;;
57947;SDS011;43754;56.992;24.292;2023-04-25T00:19:37;7.90;;;4.50;;
57947;SDS011;43754;56.992;24.292;2023-04-25T00:22:09;13.63;;;4.90;;
57947;SDS011;43754;56.992;24.292;2023-04-25T00:24:42;12.23;;;4.25;;
57947;SDS011;43754;56.992;24.292;2023-04-25T00:27:14;9.20;;;4.20;;
57947;SDS011;43754;56.992;24.292;2023-04-25T00:29:46;12.68;;;5.25;;
57947;SDS011;43754;56.992;24.292;2023-04-25T00:32:18;6.70;;;4.32;;
57947;SDS011;43754;56.992;24.292;2023-04-25T00:34:50;8.02;;;5.20;;
57947;SDS011;43754;56.992;24.292;2023-04-25T00:37:23;7.85;;;5.03;;
57947;SDS011;43754;56.992;24.292;2023-04-25T00:39:57;10.25;;;5.00;;
57947;SDS011;43754;56.992;24.292;2023-04-25T00:42:30;7.57;;;5.05;;
57947;SDS011;43754;56.992;24.292;2023-04-25T00:45:02;8.18;;;4.80;;
57947;SDS011;43754;56.992;24.292;2023-04-25T00:47:37;6.72;;;4.88;;
57947;SDS011;43754;56.992;24.292;2023-04-25T00:50:09;6.70;;;4.40;;
57947;SDS011;43754;56.992;24.292;2023-04-25T00:52:43;13.07;;;5.00;;
57947;SDS011;43754;56.992;24.292;2023-04-25T00:55:17;6.85;;;5.38;;
57947;SDS011;43754;56.992;24.292;2023-04-25T00:57:49;8.90;;;4.35;;
57947;SDS011;43754;56.992;24.292;2023-04-25T01:00:22;11.27;;;5.45;;
57947;SDS011;43754;56.992;24.292;2023-04-25T01:02:54;7.93;;;5.18;;
57947;SDS011;43754;56.992;24.292;2023-04-25T01:05:26;7.50;;;5.15;;
57947;SDS011;43754;56.992;24.292;2023-04-25T01:07:58;9.48;;;5.53;;
57947;SDS011;43754;56.992;24.292;2023-04-25T01:10:32;9.98;;;5.32;;
57947;SDS011;43754;56.992;24.292;2023-04-25T01:13:04;8.32;;;5.15;;
57947;SDS011;43754;56.992;24.292;2023-04-25T01:15:36;9.00;;;5.28;;
57947;SDS011;43754;56.992;24.292;2023-04-25T01:18:10;9.05;;;4.82;;
57947;SDS011;43754;56.992;24.292;2023-04-25T01:20:42;10.90;;;5.57;;
57947;SDS011;43754;56.992;24.292;2023-04-25T01:23:16;14.52;;;5.07;;
57947;SDS011;43754;56.992;24.292;2023-04-25T01:25:49;6.45;;;4.30;;
57947;SDS011;43754;56.992;24.292;2023-04-25T01:28:22;8.55;;;4.60;;
57947;SDS011;43754;56.992;24.292;2023-04-25T01:30:54;9.75;;;4.60;;
57947;SDS011;43754;56.992;24.292;2023-04-25T01:33:27;8.07;;;4.90;;
57947;SDS011;43754;56.992;24.292;2023-04-25T01:36:00;9.15;;;5.20;;
57947;SDS011;43754;56.992;24.292;2023-04-25T01:38:34;8.77;;;5.38;;
57947;SDS011;43754;56.992;24.292;2023-04-25T01:41:06;8.05;;;5.55;;
57947;SDS011;43754;56.992;24.292;2023-04-25T01:43:38;7.95;;;5.20;;
57947;SDS011;43754;56.992;24.292;2023-04-25T01:46:11;7.80;;;6.30;;
57947;SDS011;43754;56.992;24.292;2023-04-25T01:48:44;11.45;;;5.80;;
57947;SDS011;43754;56.992;24.292;2023-04-25T01:51:16;9.65;;;5.80;;
57947;SDS011;43754;56.992;24.292;2023-04-25T01:53:49;15.23;;;5.32;;
57947;SDS011;43754;56.992;24.292;2023-04-25T01:56:22;7.75;;;5.60;;
57947;SDS011;43754;56.992;24.292;2023-04-25T01:58:54;9.35;;;5.30;;
57947;SDS011;43754;56.992;24.292;2023-04-25T02:01:56;8.20;;;4.88;;
57947;SDS011;43754;56.992;24.292;2023-04-25T02:04:34;8.90;;;4.70;;
57947;SDS011;43754;56.992;24.292;2023-04-25T02:07:07;8.13;;;4.70;;
57947;SDS011;43754;56.992;24.292;2023-04-25T02:09:54;7.78;;;4.78;;
57947;SDS011;43754;56.992;24.292;2023-04-25T02:12:28;10.77;;;3.92;;
57947;SDS011;43754;56.992;24.292;2023-04-25T02:15:06;8.05;;;4.20;;
57947;SDS011;43754;56.992;24.292;2023-04-25T02:17:48;6.20;;;4.47;;
57947;SDS011;43754;56.992;24.292;2023-04-25T02:20:20;9.43;;;3.55;;
57947;SDS011;43754;56.992;24.292;2023-04-25T02:22:54;6.72;;;3.83;;
57947;SDS011;43754;56.992;24.292;2023-04-25T02:25:27;12.52;;;5.03;;
57947;SDS011;43754;56.992;24.292;2023-04-25T02:27:59;9.93;;;4.40;;
57947;SDS011;43754;56.992;24.292;2023-04-25T02:30:33;10.95;;;4.55;;
57947;SDS011;43754;56.992;24.292;2023-04-25T02:33:09;8.93;;;4.55;;
57947;SDS011;43754;56.992;24.292;2023-04-25T02:35:41;8.38;;;4.30;;
57947;SDS011;43754;56.992;24.292;2023-04-25T02:38:13;6.95;;;3.85;;
57947;SDS011;43754;56.992;24.292;2023-04-25T02:40:47;7.03;;;5.20;;
57947;SDS011;43754;56.992;24.292;2023-04-25T02:43:19;8.68;;;5.60;;
57947;SDS011;43754;56.992;24.292;2023-04-25T02:45:52;10.18;;;5.53;;
57947;SDS011;43754;56.992;24.292;2023-04-25T02:48:24;12.95;;;5.93;;
57947;SDS011;43754;56.992;24.292;2023-04-25T02:50:56;11.38;;;6.40;;
57947;SDS011;43754;56.992;24.292;2023-04-25T02:53:28;14.75;;;5.88;;
57947;SDS011;43754;56.992;24.292;2023-04-25T02:56:01;10.57;;;5.10;;
57947;SDS011;43754;56.992;24.292;2023-04-25T02:58:33;11.73;;;4.53;;
57947;SDS011;43754;56.992;24.292;2023-04-25T03:01:06;9.35;;;5.13;;
57947;SDS011;43754;56.992;24.292;2023-04-25T03:03:38;9.88;;;5.25;;
57947;SDS011;43754;56.992;24.292;2023-04-25T03:06:10;13.45;;;6.47;;
57947;SDS011;43754;56.992;24.292;2023-04-25T03:08:42;9.27;;;5.25;;
57947;SDS011;43754;56.992;24.292;2023-04-25T03:11:16;7.85;;;4.57;;
57947;SDS011;43754;56.992;24.292;2023-04-25T03:13:48;11.55;;;4.75;;
57947;SDS011;43754;56.992;24.292;2023-04-25T03:16:20;13.57;;;5.80;;
57947;SDS011;43754;56.992;24.292;2023-04-25T03:18:53;10.73;;;5.10;;
57947;SDS011;43754;56.992;24.292;2023-04-25T03:21:25;10.90;;;4.30;;
57947;SDS011;43754;56.992;24.292;2023-04-25T03:23:58;10.73;;;4.93;;
57947;SDS011;43754;56.992;24.292;2023-04-25T03:26:31;9.32;;;4.38;;
57947;SDS011;43754;56.992;24.292;2023-04-25T03:29:04;6.30;;;4.60;;
57947;SDS011;43754;56.992;24.292;2023-04-25T03:31:36;8.57;;;3.92;;
57947;SDS011;43754;56.992;24.292;2023-04-25T03:34:08;7.40;;;3.20;;
57947;SDS011;43754;56.992;24.292;2023-04-25T03:36:40;7.68;;;4.22;;
57947;SDS011;43754;56.992;24.292;2023-04-25T03:39:13;9.02;;;5.95;;
57947;SDS011;43754;56.992;24.292;2023-04-25T03:41:51;6.45;;;3.08;;
57947;SDS011;43754;56.992;24.292;2023-04-25T03:44:24;7.25;;;3.25;;
57947;SDS011;43754;56.992;24.292;2023-04-25T03:46:56;8.27;;;4.07;;
57947;SDS011;43754;56.992;24.292;2023-04-25T03:49:28;6.68;;;4.63;;
57947;SDS011;43754;56.992;24.292;2023-04-25T03:52:04;6.97;;;3.72;;
57947;SDS011;43754;56.992;24.292;2023-04-25T03:54:44;11.00;;;3.30;;
57947;SDS011;43754;56.992;24.292;2023-04-25T03:57:24;6.63;;;3.13;;
57947;SDS011;43754;56.992;24.292;2023-04-25T03:59:57;7.55;;;3.25;;
57947;SDS011;43754;56.992;24.292;2023-04-25T04:02:31;6.75;;;2.60;;
57947;SDS011;43754;56.992;24.292;2023-04-25T04:05:04;7.82;;;2.90;;
57947;SDS011;43754;56.992;24.292;2023-04-25T04:07:40;3.05;;;2.30;;
57947;SDS011;43754;56.992;24.292;2023-04-25T04:10:15;4.70;;;2.78;;
57947;SDS011;43754;56.992;24.292;2023-04-25T04:12:49;5.88;;;3.28;;
57947;SDS011;43754;56.992;24.292;2023-04-25T04:15:21;4.32;;;2.42;;
57947;SDS011;43754;56.992;24.292;2023-04-25T04:17:53;6.60;;;2.30;;
57947;SDS011;43754;56.992;24.292;2023-04-25T04:20:26;6.72;;;2.70;;
57947;SDS011;43754;56.992;24.292;2023-04-25T04:22:58;10.60;;;2.78;;
57947;SDS011;43754;56.992;24.292;2023-04-25T04:25:30;6.50;;;2.25;;
57947;SDS011;43754;56.992;24.292;2023-04-25T04:28:16;3.72;;;2.42;;
57947;SDS011;43754;56.992;24.292;2023-04-25T04:31:20;6.38;;;2.30;;
57947;SDS011;43754;56.992;24.292;2023-04-25T04:33:53;8.55;;;2.65;;
57947;SDS011;43754;56.992;24.292;2023-04-25T04:36:25;4.80;;;2.50;;
57947;SDS011;43754;56.992;24.292;2023-04-25T04:39:00;3.00;;;2.40;;
57947;SDS011;43754;56.992;24.292;2023-04-25T04:41:40;5.40;;;2.38;;
57947;SDS011;43754;56.992;24.292;2023-04-25T04:44:17;16.00;;;2.40;;
57947;SDS011;43754;56.992;24.292;2023-04-25T04:47:07;8.32;;;2.63;;
57947;SDS011;43754;56.992;24.292;2023-04-25T04:49:56;5.82;;;2.40;;
57947;SDS011;43754;56.992;24.292;2023-04-25T04:53:04;6.20;;;2.80;;
57947;SDS011;43754;56.992;24.292;2023-04-25T04:55:49;6.78;;;2.97;;
57947;SDS011;43754;56.992;24.292;2023-04-25T04:58:43;4.13;;;2.20;;
57947;SDS011;43754;56.992;24.292;2023-04-25T05:01:36;5.78;;;2.55;;
57947;SDS011;43754;56.992;24.292;2023-04-25T05:04:18;4.55;;;2.22;;
57947;SDS011;43754;56.992;24.292;2023-04-25T05:07:02;6.22;;;2.50;;
57947;SDS011;43754;56.992;24.292;2023-04-25T05:09:54;3.78;;;2.53;;
57947;SDS011;43754;56.992;24.292;2023-04-25T05:12:42;4.85;;;2.83;;
57947;SDS011;43754;56.992;24.292;2023-04-25T05:15:28;5.03;;;2.55;;
57947;SDS011;43754;56.992;24.292;2023-04-25T05:18:17;4.90;;;2.30;;
57947;SDS011;43754;56.992;24.292;2023-04-25T05:21:11;3.85;;;2.55;;
57947;SDS011;43754;56.992;24.292;2023-04-25T05:24:06;10.60;;;2.97;;
57947;SDS011;43754;56.992;24.292;2023-04-25T05:27:15;7.05;;;2.72;;
57947;SDS011;43754;56.992;24.292;2023-04-25T05:30:11;7.55;;;2.90;;
57947;SDS011;43754;56.992;24.292;2023-04-25T05:33:02;10.63;;;2.42;;
57947;SDS011;43754;56.992;24.292;2023-04-25T05:35:34;7.70;;;3.58;;
57947;SDS011;43754;56.992;24.292;2023-04-25T05:38:06;6.00;;;2.80;;
57947;SDS011;43754;56.992;24.292;2023-04-25T05:40:58;5.88;;;2.70;;
57947;SDS011;43754;56.992;24.292;2023-04-25T05:43:50;5.65;;;2.60;;
57947;SDS011;43754;56.992;24.292;2023-04-25T05:46:41;5.63;;;2.60;;
57947;SDS011;43754;56.992;24.292;2023-04-25T05:49:22;6.55;;;2.53;;
57947;SDS011;43754;56.992;24.292;2023-04-25T05:52:06;6.70;;;3.08;;
57947;SDS011;43754;56.992;24.292;2023-04-25T05:54:49;7.70;;;2.33;;
57947;SDS011;43754;56.992;24.292;2023-04-25T05:59:54;5.60;;;2.85;;
57947;SDS011;43754;56.992;24.292;2023-04-25T06:02:32;7.60;;;2.70;;
57947;SDS011;43754;56.992;24.292;2023-04-25T06:05:05;11.68;;;2.80;;
57947;SDS011;43754;56.992;24.292;2023-04-25T06:07:38;4.25;;;2.67;;
57947;SDS011;43754;56.992;24.292;2023-04-25T06:10:10;6.78;;;3.10;;
57947;SDS011;43754;56.992;24.292;2023-04-25T06:12:42;5.47;;;2.65;;
57947;SDS011;43754;56.992;24.292;2023-04-25T06:15:15;7.03;;;2.60;;
57947;SDS011;43754;56.992;24.292;2023-04-25T06:18:00;6.95;;;2.75;;
57947;SDS011;43754;56.992;24.292;2023-04-25T06:20:33;13.57;;;2.90;;
57947;SDS011;43754;56.992;24.292;2023-04-25T06:23:05;5.55;;;2.65;;
57947;SDS011;43754;56.992;24.292;2023-04-25T06:25:55;9.07;;;2.92;;
57947;SDS011;43754;56.992;24.292;2023-04-25T06:28:28;9.27;;;2.92;;
57947;SDS011;43754;56.992;24.292;2023-04-25T06:31:00;6.53;;;3.03;;
57947;SDS011;43754;56.992;24.292;2023-04-25T06:33:34;7.43;;;2.80;;
57947;SDS011;43754;56.992;24.292;2023-04-25T06:36:07;8.13;;;3.35;;
57947;SDS011;43754;56.992;24.292;2023-04-25T06:38:41;7.80;;;2.60;;
57947;SDS011;43754;56.992;24.292;2023-04-25T06:41:13;7.00;;;2.40;;
57947;SDS011;43754;56.992;24.292;2023-04-25T06:43:45;4.75;;;2.75;;
57947;SDS011;43754;56.992;24.292;2023-04-25T06:46:20;3.80;;;2.42;;
57947;SDS011;43754;56.992;24.292;2023-04-25T06:48:55;9.40;;;2.47;;
57947;SDS011;43754;56.992;24.292;2023-04-25T06:51:27;14.55;;;3.10;;
57947;SDS011;43754;56.992;24.292;2023-04-25T06:54:01;5.40;;;3.00;;
57947;SDS011;43754;56.992;24.292;2023-04-25T06:56:44;8.88;;;2.70;;
57947;SDS011;43754;56.992;24.292;2023-04-25T06:59:18;5.30;;;2.55;;
57947;SDS011;43754;56.992;24.292;2023-04-25T07:01:50;8.95;;;2.65;;
57947;SDS011;43754;56.992;24.292;2023-04-25T07:04:27;7.65;;;2.47;;
57947;SDS011;43754;56.992;24.292;2023-04-25T07:07:02;9.02;;;2.67;;
57947;SDS011;43754;56.992;24.292;2023-04-25T07:09:45;4.80;;;2.30;;
57947;SDS011;43754;56.992;24.292;2023-04-25T07:12:17;5.57;;;2.33;;
57947;SDS011;43754;56.992;24.292;2023-04-25T07:14:49;3.38;;;2.20;;
57947;SDS011;43754;56.992;24.292;2023-04-25T07:17:22;5.32;;;2.33;;
57947;SDS011;43754;56.992;24.292;2023-04-25T07:19:55;3.17;;;1.85;;
57947;SDS011;43754;56.992;24.292;2023-04-25T07:22:27;5.03;;;2.28;;
57947;SDS011;43754;56.992;24.292;2023-04-25T07:24:59;2.88;;;2.28;;
57947;SDS011;43754;56.992;24.292;2023-04-25T07:27:33;2.35;;;2.15;;
57947;SDS011;43754;56.992;24.292;2023-04-25T07:30:17;9.15;;;2.38;;
57947;SDS011;43754;56.992;24.292;2023-04-25T07:32:49;6.22;;;2.20;;
57947;SDS011;43754;56.992;24.292;2023-04-25T07:35:23;3.92;;;2.10;;
57947;SDS011;43754;56.992;24.292;2023-04-25T07:37:55;3.78;;;2.25;;
57947;SDS011;43754;56.992;24.292;2023-04-25T07:40:28;2.22;;;2.00;;
57947;SDS011;43754;56.992;24.292;2023-04-25T07:43:06;5.03;;;1.98;;
57947;SDS011;43754;56.992;24.292;2023-04-25T07:45:56;4.85;;;2.28;;
57947;SDS011;43754;56.992;24.292;2023-04-25T07:48:31;2.40;;;1.90;;
57947;SDS011;43754;56.992;24.292;2023-04-25T07:51:04;4.47;;;2.17;;
57947;SDS011;43754;56.992;24.292;2023-04-25T07:53:39;3.97;;;2.22;;
57947;SDS011;43754;56.992;24.292;2023-04-25T07:56:16;5.93;;;2.33;;
57947;SDS011;43754;56.992;24.292;2023-04-25T07:58:51;4.78;;;2.10;;
57947;SDS011;43754;56.992;24.292;2023-04-25T08:01:25;5.88;;;2.00;;
57947;SDS011;43754;56.992;24.292;2023-04-25T08:04:02;8.38;;;2.15;;
57947;SDS011;43754;56.992;24.292;2023-04-25T08:06:59;8.07;;;2.10;;
57947;SDS011;43754;56.992;24.292;2023-04-25T08:09:34;2.58;;;2.00;;
57947;SDS011;43754;56.992;24.292;2023-04-25T08:12:11;6.55;;;1.88;;
57947;SDS011;43754;56.992;24.292;2023-04-25T08:14:44;2.63;;;1.95;;
57947;SDS011;43754;56.992;24.292;2023-04-25T08:17:16;5.78;;;2.33;;
57947;SDS011;43754;56.992;24.292;2023-04-25T08:19:49;9.68;;;2.13;;
57947;SDS011;43754;56.992;24.292;2023-04-25T08:22:29;3.60;;;2.00;;
57947;SDS011;43754;56.992;24.292;2023-04-25T08:25:18;2.63;;;1.50;;
57947;SDS011;43754;56.992;24.292;2023-04-25T08:27:50;2.20;;;2.00;;
57947;SDS011;43754;56.992;24.292;2023-04-25T08:30:25;5.50;;;2.10;;
57947;SDS011;43754;56.992;24.292;2023-04-25T08:32:58;3.15;;;2.00;;
57947;SDS011;43754;56.992;24.292;2023-04-25T08:35:48;3.88;;;1.65;;
57947;SDS011;43754;56.992;24.292;2023-04-25T08:38:22;8.02;;;2.45;;
57947;SDS011;43754;56.992;24.292;2023-04-25T08:40:54;2.92;;;2.00;;
57947;SDS011;43754;56.992;24.292;2023-04-25T08:43:30;7.32;;;2.22;;
57947;SDS011;43754;56.992;24.292;2023-04-25T08:46:03;6.20;;;1.88;;
57947;SDS011;43754;56.992;24.292;2023-04-25T08:48:56;4.57;;;1.92;;
57947;SDS011;43754;56.992;24.292;2023-04-25T08:51:32;4.72;;;1.75;;
57947;SDS011;43754;56.992;24.292;2023-04-25T08:54:09;3.95;;;2.08;;
57947;SDS011;43754;56.992;24.292;2023-04-25T08:56:47;4.15;;;2.20;;
57947;SDS011;43754;56.992;24.292;2023-04-25T08:59:19;5.82;;;1.73;;
57947;SDS011;43754;56.992;24.292;2023-04-25T09:01:54;6.97;;;2.20;;
57947;SDS011;43754;56.992;24.292;2023-04-25T09:04:27;7.03;;;1.80;;
57947;SDS011;43754;56.992;24.292;2023-04-25T09:07:02;4.22;;;2.03;;
57947;SDS011;43754;56.992;24.292;2023-04-25T09:09:35;6.50;;;2.13;;
57947;SDS011;43754;56.992;24.292;2023-04-25T09:12:07;3.53;;;1.80;;
57947;SDS011;43754;56.992;24.292;2023-04-25T09:14:40;4.97;;;1.73;;
57947;SDS011;43754;56.992;24.292;2023-04-25T09:17:24;10.13;;;2.08;;
57947;SDS011;43754;56.992;24.292;2023-04-25T09:20:05;7.70;;;1.90;;
57947;SDS011;43754;56.992;24.292;2023-04-25T09:25:12;2.25;;;2.03;;
57947;SDS011;43754;56.992;24.292;2023-04-25T09:27:49;4.13;;;2.13;;
57947;SDS011;43754;56.992;24.292;2023-04-25T09:30:29;4.50;;;1.90;;
57947;SDS011;43754;56.992;24.292;2023-04-25T09:33:12;5.78;;;2.05;;
57947;SDS011;43754;56.992;24.292;2023-04-25T09:35:50;2.60;;;1.98;;
57947;SDS011;43754;56.992;24.292;2023-04-25T09:38:39;3.10;;;1.85;;
57947;SDS011;43754;56.992;24.292;2023-04-25T09:41:23;6.82;;;2.30;;
57947;SDS011;43754;56.992;24.292;2023-04-25T09:43:58;8.00;;;2.80;;
57947;SDS011;43754;56.992;24.292;2023-04-25T09:46:38;6.05;;;2.15;;
57947;SDS011;43754;56.992;24.292;2023-04-25T09:49:16;4.05;;;2.13;;
57947;SDS011;43754;56.992;24.292;2023-04-25T09:52:09;5.55;;;1.90;;
57947;SDS011;43754;56.992;24.292;2023-04-25T09:54:52;7.40;;;2.25;;
57947;SDS011;43754;56.992;24.292;2023-04-25T09:57:33;5.10;;;2.72;;
57947;SDS011;43754;56.992;24.292;2023-04-25T10:00:11;3.40;;;2.13;;
57947;SDS011;43754;56.992;24.292;2023-04-25T10:02:45;5.57;;;2.40;;
57947;SDS011;43754;56.992;24.292;2023-04-25T10:05:49;3.75;;;2.53;;
57947;SDS011;43754;56.992;24.292;2023-04-25T10:08:23;8.18;;;2.30;;
57947;SDS011;43754;56.992;24.292;2023-04-25T10:10:59;4.80;;;2.45;;
57947;SDS011;43754;56.992;24.292;2023-04-25T10:13:34;5.43;;;1.98;;
57947;SDS011;43754;56.992;24.292;2023-04-25T10:16:07;4.45;;;2.13;;
57947;SDS011;43754;56.992;24.292;2023-04-25T10:18:39;4.53;;;2.08;;
57947;SDS011;43754;56.992;24.292;2023-04-25T10:21:12;3.53;;;2.13;;
57947;SDS011;43754;56.992;24.292;2023-04-25T10:23:45;3.83;;;2.10;;
57947;SDS011;43754;56.992;24.292;2023-04-25T10:26:18;4.25;;;2.05;;
57947;SDS011;43754;56.992;24.292;2023-04-25T10:28:59;6.15;;;2.05;;
57947;SDS011;43754;56.992;24.292;2023-04-25T10:31:38;2.90;;;1.92;;
57947;SDS011;43754;56.992;24.292;2023-04-25T10:34:16;5.75;;;2.00;;
57947;SDS011;43754;56.992;24.292;2023-04-25T10:36:49;5.30;;;1.73;;
57947;SDS011;43754;56.992;24.292;2023-04-25T10:39:24;9.02;;;2.65;;
57947;SDS011;43754;56.992;24.292;2023-04-25T10:41:58;4.93;;;2.00;;
57947;SDS011;43754;56.992;24.292;2023-04-25T10:44:35;7.53;;;1.90;;
57947;SDS011;43754;56.992;24.292;2023-04-25T10:47:10;5.95;;;1.73;;
57947;SDS011;43754;56.992;24.292;2023-04-25T10:49:42;5.25;;;1.63;;
57947;SDS011;43754;56.992;24.292;2023-04-25T10:52:16;7.65;;;2.08;;
57947;SDS011;43754;56.992;24.292;2023-04-25T10:54:51;6.03;;;1.80;;
57947;SDS011;43754;56.992;24.292;2023-04-25T10:57:27;2.95;;;1.80;;
57947;SDS011;43754;56.992;24.292;2023-04-25T11:00:04;5.05;;;1.90;;
57947;SDS011;43754;56.992;24.292;2023-04-25T11:02:41;7.57;;;2.20;;
57947;SDS011;43754;56.992;24.292;2023-04-25T11:05:19;5.97;;;1.90;;
57947;SDS011;43754;56.992;24.292;2023-04-25T11:07:54;3.75;;;2.20;;
57947;SDS011;43754;56.992;24.292;2023-04-25T11:10:32;5.05;;;1.88;;
57947;SDS011;43754;56.992;24.292;2023-04-25T11:13:07;6.13;;;1.83;;
57947;SDS011;43754;56.992;24.292;2023-04-25T11:15:40;6.13;;;2.05;;
57947;SDS011;43754;56.992;24.292;2023-04-25T11:18:15;8.82;;;2.30;;
57947;SDS011;43754;56.992;24.292;2023-04-25T11:20:47;3.92;;;1.83;;
57947;SDS011;43754;56.992;24.292;2023-04-25T11:23:20;4.00;;;1.80;;
57947;SDS011;43754;56.992;24.292;2023-04-25T11:25:52;5.78;;;1.80;;
57947;SDS011;43754;56.992;24.292;2023-04-25T11:28:24;4.30;;;1.70;;
57947;SDS011;43754;56.992;24.292;2023-04-25T11:30:59;9.93;;;1.80;;
57947;SDS011;43754;56.992;24.292;2023-04-25T11:33:31;8.65;;;1.95;;
57947;SDS011;43754;56.992;24.292;2023-04-25T11:36:03;5.45;;;2.28;;
57947;SDS011;43754;56.992;24.292;2023-04-25T11:38:36;9.55;;;2.03;;
57947;SDS011;43754;56.992;24.292;2023-04-25T11:41:08;3.92;;;2.00;;
57947;SDS011;43754;56.992;24.292;2023-04-25T11:43:40;4.00;;;1.83;;
57947;SDS011;43754;56.992;24.292;2023-04-25T11:46:16;6.05;;;2.03;;
57947;SDS011;43754;56.992;24.292;2023-04-25T11:48:48;4.03;;;1.63;;
57947;SDS011;43754;56.992;24.292;2023-04-25T11:51:22;5.82;;;2.22;;
57947;SDS011;43754;56.992;24.292;2023-04-25T11:53:54;5.30;;;2.05;;
57947;SDS011;43754;56.992;24.292;2023-04-25T11:56:26;7.32;;;1.92;;
57947;SDS011;43754;56.992;24.292;2023-04-25T11:58:59;5.03;;;1.73;;
57947;SDS011;43754;56.992;24.292;2023-04-25T12:01:35;5.55;;;1.92;;
57947;SDS011;43754;56.992;24.292;2023-04-25T12:04:11;5.38;;;2.40;;
57947;SDS011;43754;56.992;24.292;2023-04-25T12:06:45;5.88;;;2.28;;
57947;SDS011;43754;56.992;24.292;2023-04-25T12:09:27;5.90;;;1.92;;
57947;SDS011;43754;56.992;24.292;2023-04-25T12:12:00;6.88;;;2.17;;
57947;SDS011;43754;56.992;24.292;2023-04-25T12:14:37;4.93;;;2.45;;
57947;SDS011;43754;56.992;24.292;2023-04-25T12:17:10;5.63;;;1.85;;
57947;SDS011;43754;56.992;24.292;2023-04-25T12:19:43;7.82;;;2.22;;
57947;SDS011;43754;56.992;24.292;2023-04-25T12:22:18;5.78;;;2.15;;
57947;SDS011;43754;56.992;24.292;2023-04-25T12:24:52;6.45;;;2.10;;
57947;SDS011;43754;56.992;24.292;2023-04-25T12:27:25;4.30;;;1.70;;
57947;SDS011;43754;56.992;24.292;2023-04-25T12:29:59;3.22;;;1.20;;
57947;SDS011;43754;56.992;24.292;2023-04-25T12:32:33;2.05;;;1.10;;
57947;SDS011;43754;56.992;24.292;2023-04-25T12:35:05;2.15;;;1.60;;
57947;SDS011;43754;56.992;24.292;2023-04-25T12:37:38;3.45;;;1.55;;
57947;SDS011;43754;56.992;24.292;2023-04-25T12:40:10;9.27;;;2.30;;
57947;SDS011;43754;56.992;24.292;2023-04-25T12:42:42;4.30;;;2.22;;
57947;SDS011;43754;56.992;24.292;2023-04-25T12:45:14;3.20;;;1.80;;
57947;SDS011;43754;56.992;24.292;2023-04-25T12:47:48;6.90;;;1.60;;
57947;SDS011;43754;56.992;24.292;2023-04-25T12:50:20;2.72;;;1.45;;
57947;SDS011;43754;56.992;24.292;2023-04-25T12:52:52;7.32;;;1.88;;
57947;SDS011;43754;56.992;24.292;2023-04-25T12:55:24;4.38;;;2.10;;
57947;SDS011;43754;56.992;24.292;2023-04-25T12:57:56;2.58;;;1.98;;
57947;SDS011;43754;56.992;24.292;2023-04-25T13:00:28;8.90;;;1.42;;
57947;SDS011;43754;56.992;24.292;2023-04-25T13:03:02;7.88;;;1.60;;
57947;SDS011;43754;56.992;24.292;2023-04-25T13:05:34;4.75;;;1.20;;
57947;SDS011;43754;56.992;24.292;2023-04-25T13:08:07;4.82;;;1.52;;
57947;SDS011;43754;56.992;24.292;2023-04-25T13:10:39;2.47;;;1.63;;
57947;SDS011;43754;56.992;24.292;2023-04-25T13:13:11;2.03;;;1.25;;
57947;SDS011;43754;56.992;24.292;2023-04-25T13:15:43;1.35;;;1.25;;
57947;SDS011;43754;56.992;24.292;2023-04-25T13:18:17;5.22;;;2.30;;
57947;SDS011;43754;56.992;24.292;2023-04-25T13:20:50;2.42;;;1.90;;
57947;SDS011;43754;56.992;24.292;2023-04-25T13:23:22;5.50;;;2.47;;
57947;SDS011;43754;56.992;24.292;2023-04-25T13:25:57;6.13;;;2.92;;
57947;SDS011;43754;56.992;24.292;2023-04-25T13:28:29;4.75;;;3.20;;
57947;SDS011;43754;56.992;24.292;2023-04-25T13:31:01;4.95;;;3.28;;
57947;SDS011;43754;56.992;24.292;2023-04-25T13:33:34;6.45;;;2.53;;
57947;SDS011;43754;56.992;24.292;2023-04-25T13:36:06;5.65;;;2.20;;
57947;SDS011;43754;56.992;24.292;2023-04-25T13:38:38;6.95;;;2.10;;
57947;SDS011;43754;56.992;24.292;2023-04-25T13:41:12;2.97;;;1.80;;
57947;SDS011;43754;56.992;24.292;2023-04-25T13:43:49;4.90;;;2.05;;
57947;SDS011;43754;56.992;24.292;2023-04-25T13:46:21;5.65;;;2.00;;
57947;SDS011;43754;56.992;24.292;2023-04-25T13:49:15;6.50;;;3.28;;
57947;SDS011;43754;56.992;24.292;2023-04-25T13:51:47;4.82;;;2.42;;
57947;SDS011;43754;56.992;24.292;2023-04-25T13:54:19;7.10;;;3.88;;
57947;SDS011;43754;56.992;24.292;2023-04-25T13:56:51;12.85;;;5.15;;
57947;SDS011;43754;56.992;24.292;2023-04-25T13:59:24;5.22;;;2.95;;
57947;SDS011;43754;56.992;24.292;2023-04-25T14:01:59;5.90;;;2.45;;
57947;SDS011;43754;56.992;24.292;2023-04-25T14:04:33;10.95;;;5.18;;
57947;SDS011;43754;56.992;24.292;2023-04-25T14:07:05;7.35;;;3.17;;
57947;SDS011;43754;56.992;24.292;2023-04-25T14:09:37;7.13;;;3.03;;
57947;SDS011;43754;56.992;24.292;2023-04-25T14:12:09;7.50;;;2.90;;
57947;SDS011;43754;56.992;24.292;2023-04-25T14:14:42;4.95;;;2.90;;
57947;SDS011;43754;56.992;24.292;2023-04-25T14:17:14;3.88;;;2.15;;
57947;SDS011;43754;56.992;24.292;2023-04-25T14:19:49;3.10;;;2.20;;
57947;SDS011;43754;56.992;24.292;2023-04-25T14:22:21;6.72;;;1.85;;
57947;SDS011;43754;56.992;24.292;2023-04-25T14:24:53;4.90;;;2.30;;
57947;SDS011;43754;56.992;24.292;2023-04-25T14:27:25;5.13;;;2.38;;
57947;SDS011;43754;56.992;24.292;2023-04-25T14:29:59;6.28;;;2.10;;
57947;SDS011;43754;56.992;24.292;2023-04-25T14:32:32;5.50;;;2.53;;
57947;SDS011;43754;56.992;24.292;2023-04-25T14:35:06;7.07;;;2.38;;
57947;SDS011;43754;56.992;24.292;2023-04-25T14:37:38;7.00;;;2.33;;
57947;SDS011;43754;56.992;24.292;2023-04-25T14:40:11;6.65;;;2.95;;
57947;SDS011;43754;56.992;24.292;2023-04-25T14:42:44;6.22;;;2.85;;
57947;SDS011;43754;56.992;24.292;2023-04-25T14:45:16;3.47;;;2.28;;
57947;SDS011;43754;56.992;24.292;2023-04-25T14:47:49;5.10;;;2.22;;
57947;SDS011;43754;56.992;24.292;2023-04-25T14:50:22;3.47;;;2.05;;
57947;SDS011;43754;56.992;24.292;2023-04-25T14:52:54;3.35;;;2.00;;
57947;SDS011;43754;56.992;24.292;2023-04-25T14:55:30;2.80;;;1.88;;
57947;SDS011;43754;56.992;24.292;2023-04-25T14:58:02;5.28;;;2.05;;
57947;SDS011;43754;56.992;24.292;2023-04-25T15:00:34;4.65;;;1.88;;
57947;SDS011;43754;56.992;24.292;2023-04-25T15:03:07;4.30;;;1.52;;
57947;SDS011;43754;56.992;24.292;2023-04-25T15:05:41;6.53;;;2.70;;
57947;SDS011;43754;56.992;24.292;2023-04-25T15:08:13;3.00;;;2.22;;
57947;SDS011;43754;56.992;24.292;2023-04-25T15:10:45;3.65;;;2.33;;
57947;SDS011;43754;56.992;24.292;2023-04-25T15:13:17;7.97;;;2.22;;
57947;SDS011;43754;56.992;24.292;2023-04-25T15:15:50;3.78;;;2.15;;
57947;SDS011;43754;56.992;24.292;2023-04-25T15:18:23;3.03;;;2.45;;
57947;SDS011;43754;56.992;24.292;2023-04-25T15:20:56;5.55;;;2.53;;
57947;SDS011;43754;56.992;24.292;2023-04-25T15:23:28;5.00;;;2.25;;
57947;SDS011;43754;56.992;24.292;2023-04-25T15:26:01;6.97;;;2.83;;
57947;SDS011;43754;56.992;24.292;2023-04-25T15:28:33;3.45;;;2.40;;